OLBA/BEY METAR and TAF weather

Enter ICAO airport designator
Station Type Date Time Source
OLBA METAR 2019/04/25 02:00 UTC NOAA

OLBA 250200Z 11004KT CAVOK 16/07 Q1022 NOSIG


Station Type Date Time Source
OLBA Decoded METAR 2019/04/25 02:00 UTC NOAA

Beyrouth Aeroport , Lebanon (OLBA) 33-49N 035-29E 19M
Apr 24, 2019 - 10:00 PM EDT / 2019.04.25 0200 UTC
Wind: from the ESE (110 degrees) at 5 MPH (4 KT):0
Visibility: greater than 7 mile(s):0
Temperature: 60 F (16 C)
Dew Point: 44 F (7 C)
Relative Humidity: 55%
Pressure (altimeter): 30.18 in. Hg (1022 hPa)
ob: OLBA 250200Z 11004KT CAVOK 16/07 Q1022 NOSIG
cycle: 2

Station Type Date Time Source
OLBA TAF 2019/04/24 18:03 UTC NOAA

TAF TAF OLBA 241600Z 2418/2524 05014KT 8000 SCT180
BECMG 2509/2512 02012KT
BECMG 2518/2521 CAVOK

Example: see airport list